createdAt,value
2022-12-29T00:02:06.723Z,8.89
2022-12-29T00:07:12.714Z,8.91
2022-12-29T00:12:18.171Z,8.92
2022-12-29T00:17:23.788Z,8.88
2022-12-29T00:22:46.926Z,8.88
2022-12-29T00:28:10.264Z,8.94
2022-12-29T00:33:37.323Z,8.96
2022-12-29T00:39:03.925Z,8.97
2022-12-29T00:44:11.338Z,8.95
2022-12-29T00:49:32.904Z,8.96
2022-12-29T00:54:41.179Z,8.90
2022-12-29T00:59:46.797Z,8.94
2022-12-29T01:04:54.123Z,9.04
2022-12-29T01:10:11.811Z,9.01
2022-12-29T01:15:17.574Z,9.06
2022-12-29T01:20:23.882Z,9.13
2022-12-29T01:25:29.252Z,9.15
2022-12-29T01:30:36.213Z,9.18
2022-12-29T01:35:41.725Z,9.20
2022-12-29T01:40:49.112Z,9.11
2022-12-29T01:45:56.458Z,9.19
2022-12-29T01:51:01.993Z,9.20
2022-12-29T01:56:10.672Z,9.23
2022-12-29T02:01:17.694Z,9.25
2022-12-29T02:06:33.145Z,9.23
2022-12-29T02:11:40.670Z,9.24
2022-12-29T02:17:07.399Z,9.33
2022-12-29T02:22:42.504Z,9.30
2022-12-29T02:28:12.185Z,9.27
2022-12-29T02:33:32.291Z,9.29
2022-12-29T02:38:49.479Z,9.25
2022-12-29T02:44:09.532Z,9.28
2022-12-29T02:49:17.958Z,9.26
2022-12-29T02:54:42.947Z,9.26
2022-12-29T02:59:52.110Z,9.30
2022-12-29T03:05:09.254Z,9.29
2022-12-29T03:10:17.822Z,9.35
2022-12-29T03:15:50.555Z,9.32
2022-12-29T03:21:02.030Z,9.37
2022-12-29T03:26:11.046Z,9.34
2022-12-29T03:31:18.892Z,9.32
2022-12-29T03:36:48.539Z,9.35
2022-12-29T03:41:57.471Z,9.46
2022-12-29T03:47:03.936Z,9.33
2022-12-29T03:52:09.815Z,9.40
2022-12-29T03:57:16.883Z,9.49
2022-12-29T04:02:25.195Z,9.53
2022-12-29T04:07:31.351Z,9.59
2022-12-29T04:12:37.349Z,9.51
2022-12-29T04:17:42.963Z,9.52
2022-12-29T04:22:48.627Z,9.50
2022-12-29T04:27:54.379Z,9.58
2022-12-29T04:33:20.571Z,9.60
2022-12-29T04:38:27.264Z,9.61
2022-12-29T04:43:33.034Z,9.64
2022-12-29T04:48:43.285Z,9.71
2022-12-29T04:54:05.635Z,9.75
2022-12-29T04:59:11.833Z,9.80
2022-12-29T05:04:17.381Z,9.81
2022-12-29T05:09:24.979Z,9.84
2022-12-29T05:14:30.598Z,9.87
2022-12-29T05:19:36.408Z,9.90
2022-12-29T05:24:42.395Z,9.90
2022-12-29T05:29:49.178Z,9.87
2022-12-29T05:34:54.961Z,9.78
2022-12-29T05:40:02.037Z,9.76
2022-12-29T05:45:09.367Z,9.76
2022-12-29T05:50:31.528Z,9.76
2022-12-29T05:55:46.806Z,9.79
2022-12-29T06:00:49.248Z,9.76
2022-12-29T06:05:54.858Z,9.78
2022-12-29T06:11:00.524Z,9.73
2022-12-29T06:16:06.637Z,9.70
2022-12-29T06:21:13.258Z,9.67
2022-12-29T06:26:18.860Z,9.68
2022-12-29T06:31:25.949Z,9.75
2022-12-29T06:36:31.541Z,9.74
2022-12-29T06:41:37.050Z,9.82
2022-12-29T06:46:56.547Z,9.87
2022-12-29T06:52:07.548Z,9.93
2022-12-29T06:57:10.799Z,9.95
2022-12-29T07:02:18.056Z,10.27
2022-12-29T07:07:23.796Z,10.94
2022-12-29T07:12:29.243Z,10.55
2022-12-29T07:17:34.629Z,10.47
2022-12-29T07:22:40.392Z,10.50
2022-12-29T07:27:45.923Z,10.53
2022-12-29T07:32:51.312Z,10.62
2022-12-29T07:37:56.751Z,10.61
2022-12-29T07:43:02.412Z,10.62
2022-12-29T07:48:10.823Z,10.65
2022-12-29T07:53:16.900Z,10.81
2022-12-29T07:58:22.361Z,10.75
2022-12-29T08:03:27.829Z,10.73
2022-12-29T08:08:33.427Z,10.74
2022-12-29T08:13:38.894Z,10.63
2022-12-29T08:18:44.353Z,10.64
2022-12-29T08:23:50.282Z,10.60
2022-12-29T08:28:57.400Z,10.58
2022-12-29T08:34:04.527Z,10.65
2022-12-29T08:39:10.359Z,10.72
2022-12-29T08:44:15.974Z,10.74
2022-12-29T08:49:21.634Z,10.75
2022-12-29T08:54:27.226Z,10.74
2022-12-29T08:59:33.413Z,10.88
2022-12-29T09:04:39.136Z,11.00
2022-12-29T09:09:44.583Z,11.03
2022-12-29T09:14:50.252Z,11.15
2022-12-29T09:19:55.792Z,11.17
2022-12-29T09:25:01.655Z,11.30
2022-12-29T09:30:11.119Z,11.32
2022-12-29T09:35:17.857Z,11.43
2022-12-29T09:40:35.139Z,11.56
2022-12-29T09:45:50.063Z,11.68
2022-12-29T09:51:04.438Z,11.84
2022-12-29T09:56:15.696Z,11.96
2022-12-29T10:01:36.528Z,12.02
2022-12-29T10:07:19.387Z,12.06
2022-12-29T10:12:07.721Z,12.21
2022-12-29T10:17:35.763Z,12.26
2022-12-29T10:22:50.039Z,12.36
2022-12-29T10:27:58.491Z,12.47
2022-12-29T10:33:06.976Z,12.59
2022-12-29T10:38:34.392Z,12.67
2022-12-29T10:43:47.199Z,11.24
2022-12-29T10:48:54.395Z,12.84
2022-12-29T10:54:05.607Z,12.93
2022-12-29T10:59:19.682Z,12.99
2022-12-29T11:04:55.723Z,13.14
2022-12-29T11:10:19.723Z,13.23
2022-12-29T11:15:25.573Z,13.23
2022-12-29T11:20:40.607Z,13.31
2022-12-29T11:25:46.102Z,13.31
2022-12-29T11:30:54.564Z,13.42
2022-12-29T11:36:03.493Z,13.47
2022-12-29T11:41:11.146Z,13.53
2022-12-29T11:46:22.368Z,13.53
2022-12-29T11:51:45.722Z,13.51
2022-12-29T11:56:53.722Z,13.62
2022-12-29T12:02:01.688Z,13.71
2022-12-29T12:07:22.202Z,13.69
2022-12-29T12:12:33.285Z,13.74
2022-12-29T12:17:44.709Z,13.79
2022-12-29T12:22:58.947Z,13.84
2022-12-29T12:28:16.663Z,13.86
2022-12-29T12:33:31.186Z,13.88
2022-12-29T12:38:48.299Z,13.82
2022-12-29T12:43:56.736Z,13.95
2022-12-29T12:49:33.925Z,13.92
2022-12-29T12:54:57.706Z,13.76
2022-12-29T13:00:06.616Z,13.66
2022-12-29T13:05:26.141Z,13.66
2022-12-29T13:10:33.786Z,13.51
2022-12-29T13:15:45.486Z,13.40
2022-12-29T13:21:02.885Z,13.44
2022-12-29T13:26:32.712Z,13.28
2022-12-29T13:32:08.542Z,13.03
2022-12-29T13:37:17.020Z,12.76
2022-12-29T13:42:23.309Z,12.60
2022-12-29T13:47:34.307Z,12.41
2022-12-29T13:53:19.531Z,12.30
2022-12-29T13:58:43.829Z,12.15
2022-12-29T14:03:52.833Z,11.97
2022-12-29T14:09:20.801Z,11.85
2022-12-29T14:14:29.468Z,11.70
2022-12-29T14:19:37.968Z,11.67
2022-12-29T14:24:46.769Z,11.57
2022-12-29T14:29:54.531Z,11.54
2022-12-29T14:35:02.322Z,11.50
2022-12-29T14:40:23.371Z,11.45
2022-12-29T14:45:33.623Z,11.42
2022-12-29T14:50:42.081Z,11.39
2022-12-29T14:55:59.316Z,11.30
2022-12-29T15:01:07.509Z,11.28
2022-12-29T15:06:17.142Z,11.20
2022-12-29T15:11:25.418Z,11.16
2022-12-29T15:16:38.141Z,11.16
2022-12-29T15:21:44.777Z,11.09
2022-12-29T15:26:54.112Z,11.11
2022-12-29T15:32:05.479Z,11.18
2022-12-29T15:37:11.517Z,11.11
2022-12-29T15:42:32.030Z,11.09
2022-12-29T15:47:37.628Z,11.05
2022-12-29T15:52:43.542Z,11.02
2022-12-29T15:57:49.205Z,11.00
2022-12-29T16:02:56.383Z,10.97
2022-12-29T16:08:02.430Z,10.91
2022-12-29T16:13:22.831Z,10.93
2022-12-29T16:18:31.291Z,10.89
2022-12-29T16:23:38.848Z,10.87
2022-12-29T16:28:44.894Z,10.81
2022-12-29T16:33:53.110Z,10.79
2022-12-29T16:39:24.296Z,10.75
2022-12-29T16:44:33.853Z,10.75
2022-12-29T16:49:42.153Z,10.68
2022-12-29T16:54:50.596Z,10.65
2022-12-29T16:59:59.643Z,10.64
2022-12-29T17:05:05.550Z,10.65
2022-12-29T17:10:11.605Z,10.64
2022-12-29T17:15:30.891Z,10.62
2022-12-29T17:20:36.571Z,10.64
2022-12-29T17:25:42.784Z,10.60
2022-12-29T17:30:49.292Z,10.62
2022-12-29T17:35:55.845Z,10.63
2022-12-29T17:41:01.908Z,10.69
2022-12-29T17:46:09.200Z,10.69
2022-12-29T17:51:15.397Z,10.78
2022-12-29T17:56:20.871Z,10.75
2022-12-29T18:01:31.067Z,10.78
2022-12-29T18:06:34.164Z,10.84
2022-12-29T18:11:44.699Z,10.86
2022-12-29T18:16:50.444Z,10.89
2022-12-29T18:21:55.893Z,10.91
2022-12-29T18:27:01.349Z,10.88
2022-12-29T18:32:08.215Z,10.81
2022-12-29T18:37:13.864Z,10.86
2022-12-29T18:42:19.443Z,10.72
2022-12-29T18:47:24.949Z,10.80
2022-12-29T18:52:30.327Z,10.66
2022-12-29T18:57:35.802Z,10.74
2022-12-29T19:02:41.978Z,10.85
2022-12-29T19:07:47.704Z,10.82
2022-12-29T19:12:54.704Z,10.80
2022-12-29T19:23:14.433Z,10.97
2022-12-29T19:28:28.329Z,11.03
2022-12-29T19:33:33.701Z,11.03
2022-12-29T19:38:39.100Z,11.05
2022-12-29T19:43:45.215Z,11.06
2022-12-29T19:48:51.704Z,11.00
2022-12-29T19:53:58.640Z,11.06
2022-12-29T19:59:04.194Z,10.98
2022-12-29T20:04:09.706Z,11.05
2022-12-29T20:09:15.184Z,11.08
2022-12-29T20:14:20.638Z,10.98
2022-12-29T20:19:26.183Z,11.03
2022-12-29T20:24:33.123Z,10.97
2022-12-29T20:29:41.038Z,11.01
2022-12-29T20:34:48.442Z,11.02
2022-12-29T20:39:53.971Z,11.01
2022-12-29T20:45:01.150Z,11.01
2022-12-29T20:50:07.467Z,11.00
2022-12-29T20:55:12.921Z,11.04
2022-12-29T21:00:22.598Z,10.97
2022-12-29T21:05:28.128Z,11.04
2022-12-29T21:10:33.656Z,11.07
2022-12-29T21:15:39.200Z,11.06
2022-12-29T21:20:44.723Z,11.03
2022-12-29T21:25:50.454Z,10.98
2022-12-29T21:30:55.967Z,10.92
2022-12-29T21:36:06.518Z,10.84
2022-12-29T21:41:16.242Z,10.89
2022-12-29T21:46:23.902Z,10.85
2022-12-29T21:51:47.585Z,10.83
2022-12-29T21:56:55.408Z,10.88
2022-12-29T22:02:19.604Z,10.74
2022-12-29T22:07:43.363Z,10.70
2022-12-29T22:13:02.217Z,10.68
2022-12-29T22:18:07.966Z,10.61
2022-12-29T22:23:15.237Z,10.71
2022-12-29T22:28:20.596Z,10.74
2022-12-29T22:33:26.184Z,10.72
2022-12-29T22:38:31.655Z,10.79
2022-12-29T22:43:37.045Z,10.80
2022-12-29T22:48:42.489Z,10.88
2022-12-29T22:53:50.208Z,10.91
2022-12-29T22:58:55.725Z,10.95
2022-12-29T23:04:44.332Z,10.95
2022-12-29T23:09:11.379Z,11.00
2022-12-29T23:14:19.810Z,10.98
2022-12-29T23:19:25.344Z,10.89
2022-12-29T23:24:30.878Z,10.86
2022-12-29T23:29:36.671Z,10.83
2022-12-29T23:34:42.029Z,10.78
2022-12-29T23:39:47.491Z,10.78
2022-12-29T23:44:52.896Z,10.74
2022-12-29T23:49:58.651Z,10.60
2022-12-29T23:55:05.223Z,10.48
